sensor_id;sensor_type;location;lat;lon;timestamp;pressure;altitude;pressure_sealevel;temperature;humidity
51229;BME280;37304;52.216;6.874;2022-08-19T00:03:18;101055.81;;;17.67;100.00
51229;BME280;37304;52.216;6.874;2022-08-19T00:08:18;101058.56;;;17.64;100.00
51229;BME280;37304;52.216;6.874;2022-08-19T00:13:19;101061.47;;;17.58;100.00
51229;BME280;37304;52.216;6.874;2022-08-19T00:18:19;101057.22;;;17.54;100.00
51229;BME280;37304;52.216;6.874;2022-08-19T00:23:20;101063.53;;;17.50;100.00
51229;BME280;37304;52.216;6.874;2022-08-19T00:28:20;101073.38;;;17.44;100.00
51229;BME280;37304;52.216;6.874;2022-08-19T00:33:21;101068.34;;;17.40;100.00
51229;BME280;37304;52.216;6.874;2022-08-19T00:38:21;101071.16;;;17.35;100.00
51229;BME280;37304;52.216;6.874;2022-08-19T00:43:24;101067.88;;;17.30;100.00
51229;BME280;37304;52.216;6.874;2022-08-19T00:48:26;101074.97;;;17.28;100.00
51229;BME280;37304;52.216;6.874;2022-08-19T00:53:28;101076.13;;;17.21;100.00
51229;BME280;37304;52.216;6.874;2022-08-19T00:58:33;101063.97;;;17.18;100.00
51229;BME280;37304;52.216;6.874;2022-08-19T01:03:35;101056.94;;;17.18;100.00
51229;BME280;37304;52.216;6.874;2022-08-19T01:08:35;101064.97;;;17.15;100.00
51229;BME280;37304;52.216;6.874;2022-08-19T01:13:36;101057.25;;;17.11;100.00
51229;BME280;37304;52.216;6.874;2022-08-19T01:18:39;101052.25;;;17.05;100.00
51229;BME280;37304;52.216;6.874;2022-08-19T01:23:41;101060.34;;;17.00;100.00
51229;BME280;37304;52.216;6.874;2022-08-19T01:28:46;101057.00;;;16.95;100.00
51229;BME280;37304;52.216;6.874;2022-08-19T01:33:48;101056.38;;;16.88;100.00
51229;BME280;37304;52.216;6.874;2022-08-19T01:38:49;101051.13;;;16.88;100.00
51229;BME280;37304;52.216;6.874;2022-08-19T01:43:50;101058.25;;;16.84;100.00
51229;BME280;37304;52.216;6.874;2022-08-19T01:48:51;101059.94;;;16.87;100.00
51229;BME280;37304;52.216;6.874;2022-08-19T01:53:51;101067.00;;;16.85;100.00
51229;BME280;37304;52.216;6.874;2022-08-19T01:58:56;101066.13;;;16.84;100.00
51229;BME280;37304;52.216;6.874;2022-08-19T02:03:58;101062.59;;;16.85;100.00
51229;BME280;37304;52.216;6.874;2022-08-19T02:09:01;101058.47;;;16.80;100.00
51229;BME280;37304;52.216;6.874;2022-08-19T02:14:03;101059.44;;;16.77;100.00
51229;BME280;37304;52.216;6.874;2022-08-19T02:19:04;101067.31;;;16.77;100.00
51229;BME280;37304;52.216;6.874;2022-08-19T02:24:05;101067.38;;;16.76;100.00
51229;BME280;37304;52.216;6.874;2022-08-19T02:29:05;101065.72;;;16.73;100.00
51229;BME280;37304;52.216;6.874;2022-08-19T02:34:06;101075.41;;;16.71;100.00
51229;BME280;37304;52.216;6.874;2022-08-19T02:39:06;101060.78;;;16.65;100.00
51229;BME280;37304;52.216;6.874;2022-08-19T02:44:06;101064.59;;;16.56;100.00
51229;BME280;37304;52.216;6.874;2022-08-19T02:49:07;101054.78;;;16.62;100.00
51229;BME280;37304;52.216;6.874;2022-08-19T02:54:10;101050.56;;;16.57;100.00
51229;BME280;37304;52.216;6.874;2022-08-19T02:59:11;101067.09;;;16.59;100.00
51229;BME280;37304;52.216;6.874;2022-08-19T03:04:14;101080.50;;;16.52;100.00
51229;BME280;37304;52.216;6.874;2022-08-19T03:09:17;101077.31;;;16.43;100.00
51229;BME280;37304;52.216;6.874;2022-08-19T03:14:17;101081.16;;;16.35;100.00
51229;BME280;37304;52.216;6.874;2022-08-19T03:19:19;101079.34;;;16.37;100.00
51229;BME280;37304;52.216;6.874;2022-08-19T03:24:21;101084.84;;;16.29;100.00
51229;BME280;37304;52.216;6.874;2022-08-19T03:29:21;101083.22;;;16.26;100.00
51229;BME280;37304;52.216;6.874;2022-08-19T03:34:24;101071.94;;;16.24;100.00
51229;BME280;37304;52.216;6.874;2022-08-19T03:39:28;101071.06;;;16.24;100.00
51229;BME280;37304;52.216;6.874;2022-08-19T03:44:29;101066.72;;;16.23;100.00
51229;BME280;37304;52.216;6.874;2022-08-19T03:49:31;101059.81;;;16.20;100.00
51229;BME280;37304;52.216;6.874;2022-08-19T03:54:34;101060.72;;;16.19;100.00
51229;BME280;37304;52.216;6.874;2022-08-19T03:59:36;101060.59;;;16.22;100.00
51229;BME280;37304;52.216;6.874;2022-08-19T04:04:42;101053.38;;;16.29;100.00
51229;BME280;37304;52.216;6.874;2022-08-19T04:09:43;101050.72;;;16.30;100.00
51229;BME280;37304;52.216;6.874;2022-08-19T04:14:44;101053.94;;;16.37;100.00
51229;BME280;37304;52.216;6.874;2022-08-19T04:19:44;101055.72;;;16.37;100.00
51229;BME280;37304;52.216;6.874;2022-08-19T04:24:44;101047.97;;;16.34;100.00
51229;BME280;37304;52.216;6.874;2022-08-19T04:29:45;101040.34;;;16.27;100.00
51229;BME280;37304;52.216;6.874;2022-08-19T04:34:45;101028.19;;;16.25;100.00
51229;BME280;37304;52.216;6.874;2022-08-19T04:39:45;101039.63;;;16.22;100.00
51229;BME280;37304;52.216;6.874;2022-08-19T04:45:07;101042.25;;;16.22;100.00
51229;BME280;37304;52.216;6.874;2022-08-19T04:50:10;101052.84;;;16.19;100.00
51229;BME280;37304;52.216;6.874;2022-08-19T04:55:11;101056.19;;;16.24;100.00
51229;BME280;37304;52.216;6.874;2022-08-19T05:00:12;101064.94;;;16.23;100.00
51229;BME280;37304;52.216;6.874;2022-08-19T05:05:13;101066.44;;;16.30;100.00
51229;BME280;37304;52.216;6.874;2022-08-19T05:10:14;101071.69;;;16.30;100.00
51229;BME280;37304;52.216;6.874;2022-08-19T05:15:14;101076.59;;;16.40;100.00
51229;BME280;37304;52.216;6.874;2022-08-19T05:20:14;101077.31;;;16.43;100.00
51229;BME280;37304;52.216;6.874;2022-08-19T05:25:33;101074.41;;;16.51;100.00
51229;BME280;37304;52.216;6.874;2022-08-19T05:30:33;101067.84;;;16.63;100.00
51229;BME280;37304;52.216;6.874;2022-08-19T05:35:36;101072.91;;;16.68;100.00
51229;BME280;37304;52.216;6.874;2022-08-19T05:40:39;101072.97;;;16.88;100.00
51229;BME280;37304;52.216;6.874;2022-08-19T05:45:41;101069.22;;;16.96;100.00
51229;BME280;37304;52.216;6.874;2022-08-19T05:50:42;101065.59;;;17.00;100.00
51229;BME280;37304;52.216;6.874;2022-08-19T05:55:42;101072.03;;;17.13;100.00
51229;BME280;37304;52.216;6.874;2022-08-19T06:00:43;101068.88;;;17.27;100.00
51229;BME280;37304;52.216;6.874;2022-08-19T06:05:45;101075.31;;;17.41;100.00
51229;BME280;37304;52.216;6.874;2022-08-19T06:10:46;101074.56;;;17.37;100.00
51229;BME280;37304;52.216;6.874;2022-08-19T06:15:46;101068.47;;;17.37;100.00
51229;BME280;37304;52.216;6.874;2022-08-19T06:20:46;101075.56;;;17.35;100.00
51229;BME280;37304;52.216;6.874;2022-08-19T06:25:47;101081.66;;;17.35;100.00
51229;BME280;37304;52.216;6.874;2022-08-19T06:30:47;101082.16;;;17.45;100.00
51229;BME280;37304;52.216;6.874;2022-08-19T06:35:48;101076.22;;;17.60;100.00
51229;BME280;37304;52.216;6.874;2022-08-19T06:40:48;101080.00;;;17.75;100.00
51229;BME280;37304;52.216;6.874;2022-08-19T06:45:49;101076.56;;;17.94;100.00
51229;BME280;37304;52.216;6.874;2022-08-19T06:50:52;101072.63;;;18.04;100.00
51229;BME280;37304;52.216;6.874;2022-08-19T06:55:52;101070.81;;;18.26;100.00
51229;BME280;37304;52.216;6.874;2022-08-19T07:01:03;101062.00;;;18.46;100.00
51229;BME280;37304;52.216;6.874;2022-08-19T07:06:10;101064.50;;;18.49;100.00
51229;BME280;37304;52.216;6.874;2022-08-19T07:11:13;101062.81;;;18.85;100.00
51229;BME280;37304;52.216;6.874;2022-08-19T07:16:17;101059.97;;;18.89;100.00
51229;BME280;37304;52.216;6.874;2022-08-19T07:21:22;101054.16;;;19.19;100.00
51229;BME280;37304;52.216;6.874;2022-08-19T07:26:27;101060.66;;;19.47;100.00
51229;BME280;37304;52.216;6.874;2022-08-19T07:31:28;101064.38;;;19.96;100.00
51229;BME280;37304;52.216;6.874;2022-08-19T07:36:28;101058.06;;;20.32;100.00
51229;BME280;37304;52.216;6.874;2022-08-19T07:41:31;101051.59;;;20.54;100.00
51229;BME280;37304;52.216;6.874;2022-08-19T07:46:37;101058.56;;;20.87;100.00
51229;BME280;37304;52.216;6.874;2022-08-19T07:51:39;101055.16;;;21.01;100.00
51229;BME280;37304;52.216;6.874;2022-08-19T07:56:39;101063.22;;;21.45;100.00
51229;BME280;37304;52.216;6.874;2022-08-19T08:01:40;101076.25;;;21.78;100.00
51229;BME280;37304;52.216;6.874;2022-08-19T08:06:41;101079.09;;;22.04;100.00
51229;BME280;37304;52.216;6.874;2022-08-19T08:12:07;101082.41;;;22.22;100.00
51229;BME280;37304;52.216;6.874;2022-08-19T08:17:10;101086.53;;;22.41;100.00
51229;BME280;37304;52.216;6.874;2022-08-19T08:22:14;101078.53;;;22.84;100.00
51229;BME280;37304;52.216;6.874;2022-08-19T08:27:39;101078.25;;;22.89;100.00
51229;BME280;37304;52.216;6.874;2022-08-19T08:32:40;101100.34;;;23.03;100.00
51229;BME280;37304;52.216;6.874;2022-08-19T08:37:41;101097.59;;;23.32;100.00
51229;BME280;37304;52.216;6.874;2022-08-19T08:53:38;101103.63;;;24.00;100.00
51229;BME280;37304;52.216;6.874;2022-08-19T08:58:51;101099.19;;;24.01;100.00
51229;BME280;37304;52.216;6.874;2022-08-19T09:03:54;101095.13;;;24.08;96.01
51229;BME280;37304;52.216;6.874;2022-08-19T09:09:20;101094.91;;;24.24;94.11
51229;BME280;37304;52.216;6.874;2022-08-19T09:14:36;101080.22;;;24.68;95.66
51229;BME280;37304;52.216;6.874;2022-08-19T09:25:14;101097.28;;;25.14;85.33
51229;BME280;37304;52.216;6.874;2022-08-19T09:30:19;101096.47;;;25.50;83.86
51229;BME280;37304;52.216;6.874;2022-08-19T09:35:25;101095.81;;;25.93;82.05
51229;BME280;37304;52.216;6.874;2022-08-19T09:40:27;101094.22;;;25.79;77.05
51229;BME280;37304;52.216;6.874;2022-08-19T09:45:28;101084.38;;;27.15;79.91
51229;BME280;37304;52.216;6.874;2022-08-19T09:50:29;101083.19;;;27.08;69.45
51229;BME280;37304;52.216;6.874;2022-08-19T09:55:42;101080.75;;;28.52;68.35
51229;BME280;37304;52.216;6.874;2022-08-19T10:00:43;101088.84;;;29.40;65.01
51229;BME280;37304;52.216;6.874;2022-08-19T10:05:43;101081.38;;;29.91;62.02
51229;BME280;37304;52.216;6.874;2022-08-19T10:10:50;101089.66;;;29.98;58.37
51229;BME280;37304;52.216;6.874;2022-08-19T10:15:54;101083.97;;;30.11;56.43
51229;BME280;37304;52.216;6.874;2022-08-19T10:21:05;101079.53;;;29.54;56.33
51229;BME280;37304;52.216;6.874;2022-08-19T10:26:08;101076.09;;;30.37;57.63
51229;BME280;37304;52.216;6.874;2022-08-19T10:31:15;101065.34;;;31.20;54.58
51229;BME280;37304;52.216;6.874;2022-08-19T10:36:20;101063.69;;;30.55;53.93
51229;BME280;37304;52.216;6.874;2022-08-19T10:41:24;101070.44;;;30.13;53.53
51229;BME280;37304;52.216;6.874;2022-08-19T10:46:27;101070.09;;;29.30;54.83
51229;BME280;37304;52.216;6.874;2022-08-19T10:51:28;101061.72;;;28.35;56.35
51229;BME280;37304;52.216;6.874;2022-08-19T10:56:46;101059.09;;;27.83;58.59
51229;BME280;37304;52.216;6.874;2022-08-19T11:01:54;101059.75;;;28.37;60.85
51229;BME280;37304;52.216;6.874;2022-08-19T11:06:55;101056.81;;;29.58;57.71
51229;BME280;37304;52.216;6.874;2022-08-19T11:11:56;101060.72;;;29.74;53.01
51229;BME280;37304;52.216;6.874;2022-08-19T11:16:57;101052.34;;;28.70;55.01
51229;BME280;37304;52.216;6.874;2022-08-19T11:21:57;101051.25;;;29.02;57.48
51229;BME280;37304;52.216;6.874;2022-08-19T11:27:06;101043.38;;;30.34;53.88
51229;BME280;37304;52.216;6.874;2022-08-19T11:32:09;101049.53;;;31.17;52.32
51229;BME280;37304;52.216;6.874;2022-08-19T11:37:10;101036.53;;;31.57;49.71
51229;BME280;37304;52.216;6.874;2022-08-19T11:42:10;101030.75;;;30.99;48.06
51229;BME280;37304;52.216;6.874;2022-08-19T11:47:29;101042.69;;;29.66;48.75
51229;BME280;37304;52.216;6.874;2022-08-19T11:52:30;101043.66;;;29.08;49.39
51229;BME280;37304;52.216;6.874;2022-08-19T11:57:31;101038.25;;;28.68;50.87
51229;BME280;37304;52.216;6.874;2022-08-19T12:02:31;101029.00;;;28.82;52.33
51229;BME280;37304;52.216;6.874;2022-08-19T12:07:33;101037.63;;;30.29;48.98
51229;BME280;37304;52.216;6.874;2022-08-19T12:12:33;101028.19;;;31.33;46.02
51229;BME280;37304;52.216;6.874;2022-08-19T12:17:34;101034.19;;;30.55;46.56
51229;BME280;37304;52.216;6.874;2022-08-19T12:22:36;101029.09;;;32.12;43.41
51229;BME280;37304;52.216;6.874;2022-08-19T12:27:38;101023.50;;;33.06;40.08
51229;BME280;37304;52.216;6.874;2022-08-19T12:32:39;101026.00;;;33.49;39.15
51229;BME280;37304;52.216;6.874;2022-08-19T12:37:40;101021.81;;;33.13;38.13
51229;BME280;37304;52.216;6.874;2022-08-19T12:42:42;101022.78;;;33.93;37.09
51229;BME280;37304;52.216;6.874;2022-08-19T12:47:42;101024.00;;;34.54;36.42
51229;BME280;37304;52.216;6.874;2022-08-19T12:52:43;101026.22;;;35.12;33.04
51229;BME280;37304;52.216;6.874;2022-08-19T12:57:43;101010.09;;;34.65;33.54
51229;BME280;37304;52.216;6.874;2022-08-19T13:02:46;101007.00;;;35.07;32.36
51229;BME280;37304;52.216;6.874;2022-08-19T13:07:47;101002.63;;;35.96;32.01
51229;BME280;37304;52.216;6.874;2022-08-19T13:12:49;101005.91;;;36.28;32.36
51229;BME280;37304;52.216;6.874;2022-08-19T13:17:52;100991.63;;;35.97;32.08
51229;BME280;37304;52.216;6.874;2022-08-19T13:22:54;100996.72;;;35.25;31.58
51229;BME280;37304;52.216;6.874;2022-08-19T13:27:54;100989.47;;;36.08;32.00
51229;BME280;37304;52.216;6.874;2022-08-19T13:32:55;100977.81;;;35.55;31.22
51229;BME280;37304;52.216;6.874;2022-08-19T13:38:17;100977.81;;;35.55;31.92
51229;BME280;37304;52.216;6.874;2022-08-19T13:43:19;100985.59;;;33.89;35.16
51229;BME280;37304;52.216;6.874;2022-08-19T13:48:20;100981.56;;;33.84;36.36
51229;BME280;37304;52.216;6.874;2022-08-19T13:53:20;100983.19;;;33.62;36.68
51229;BME280;37304;52.216;6.874;2022-08-19T13:58:21;100982.41;;;33.29;37.60
51229;BME280;37304;52.216;6.874;2022-08-19T14:03:22;100975.91;;;32.32;38.74
51229;BME280;37304;52.216;6.874;2022-08-19T14:08:25;100973.03;;;32.83;39.19
51229;BME280;37304;52.216;6.874;2022-08-19T14:13:25;100971.50;;;32.80;38.20
51229;BME280;37304;52.216;6.874;2022-08-19T14:18:26;100964.47;;;32.46;37.54
51229;BME280;37304;52.216;6.874;2022-08-19T14:23:26;100959.09;;;32.54;39.05
51229;BME280;37304;52.216;6.874;2022-08-19T14:28:26;100959.47;;;31.49;39.47
51229;BME280;37304;52.216;6.874;2022-08-19T14:33:28;100967.66;;;30.94;41.72
51229;BME280;37304;52.216;6.874;2022-08-19T14:38:28;100950.28;;;31.07;39.87
51229;BME280;37304;52.216;6.874;2022-08-19T14:43:31;100946.53;;;30.73;40.21
51229;BME280;37304;52.216;6.874;2022-08-19T14:48:31;100957.03;;;30.30;42.38
51229;BME280;37304;52.216;6.874;2022-08-19T14:53:32;100960.75;;;29.73;42.49
51229;BME280;37304;52.216;6.874;2022-08-19T14:58:36;100958.78;;;29.47;43.50
51229;BME280;37304;52.216;6.874;2022-08-19T15:03:36;100959.75;;;29.36;45.37
51229;BME280;37304;52.216;6.874;2022-08-19T15:08:38;100959.69;;;29.18;44.67
51229;BME280;37304;52.216;6.874;2022-08-19T15:13:39;100950.59;;;28.91;44.86
51229;BME280;37304;52.216;6.874;2022-08-19T15:18:39;100955.69;;;28.85;45.32
51229;BME280;37304;52.216;6.874;2022-08-19T15:23:42;100959.63;;;28.51;44.49
51229;BME280;37304;52.216;6.874;2022-08-19T15:28:42;100957.47;;;28.55;44.99
51229;BME280;37304;52.216;6.874;2022-08-19T15:33:43;100960.28;;;28.33;43.86
51229;BME280;37304;52.216;6.874;2022-08-19T15:38:44;100961.13;;;28.24;44.10
51229;BME280;37304;52.216;6.874;2022-08-19T15:43:46;100974.63;;;28.23;45.12
51229;BME280;37304;52.216;6.874;2022-08-19T15:48:48;100967.41;;;28.03;46.06
51229;BME280;37304;52.216;6.874;2022-08-19T15:53:49;100976.13;;;28.05;46.81
51229;BME280;37304;52.216;6.874;2022-08-19T15:58:50;100973.56;;;28.04;47.42
51229;BME280;37304;52.216;6.874;2022-08-19T16:04:09;100986.75;;;27.96;46.90
51229;BME280;37304;52.216;6.874;2022-08-19T16:09:29;100992.75;;;27.78;47.12
51229;BME280;37304;52.216;6.874;2022-08-19T16:14:34;100995.06;;;27.93;48.07
51229;BME280;37304;52.216;6.874;2022-08-19T16:19:37;100996.19;;;27.90;48.30
51229;BME280;37304;52.216;6.874;2022-08-19T16:24:37;100998.28;;;27.55;53.81
51229;BME280;37304;52.216;6.874;2022-08-19T16:29:38;101008.97;;;27.13;60.96
51229;BME280;37304;52.216;6.874;2022-08-19T16:34:39;101012.22;;;26.95;65.08
51229;BME280;37304;52.216;6.874;2022-08-19T16:39:40;101007.19;;;26.69;67.98
51229;BME280;37304;52.216;6.874;2022-08-19T16:44:42;101026.06;;;26.34;72.25
51229;BME280;37304;52.216;6.874;2022-08-19T16:49:44;101027.53;;;26.26;73.38
51229;BME280;37304;52.216;6.874;2022-08-19T16:54:44;101030.81;;;25.84;74.78
51229;BME280;37304;52.216;6.874;2022-08-19T16:59:44;101033.59;;;25.60;75.58
51229;BME280;37304;52.216;6.874;2022-08-19T17:04:45;101042.53;;;25.48;76.44
51229;BME280;37304;52.216;6.874;2022-08-19T17:09:48;101054.09;;;25.35;77.67
51229;BME280;37304;52.216;6.874;2022-08-19T17:14:49;101056.53;;;25.14;79.73
51229;BME280;37304;52.216;6.874;2022-08-19T17:19:49;101059.88;;;24.93;80.87
51229;BME280;37304;52.216;6.874;2022-08-19T17:24:50;101064.59;;;24.77;82.59
51229;BME280;37304;52.216;6.874;2022-08-19T17:29:51;101067.81;;;24.69;83.57
51229;BME280;37304;52.216;6.874;2022-08-19T17:34:52;101064.44;;;24.54;85.25
51229;BME280;37304;52.216;6.874;2022-08-19T17:39:55;101074.72;;;24.34;88.54
51229;BME280;37304;52.216;6.874;2022-08-19T17:44:56;101071.44;;;23.92;100.00
51229;BME280;37304;52.216;6.874;2022-08-19T17:49:59;101067.31;;;23.62;100.00
51229;BME280;37304;52.216;6.874;2022-08-19T17:55:00;101069.38;;;23.31;100.00
51229;BME280;37304;52.216;6.874;2022-08-19T18:00:01;101064.34;;;22.86;100.00
51229;BME280;37304;52.216;6.874;2022-08-19T18:05:03;101071.03;;;22.64;100.00
51229;BME280;37304;52.216;6.874;2022-08-19T18:10:04;101074.84;;;22.45;100.00
51229;BME280;37304;52.216;6.874;2022-08-19T18:15:06;101070.59;;;22.28;100.00
51229;BME280;37304;52.216;6.874;2022-08-19T18:20:09;101064.81;;;22.21;100.00
51229;BME280;37304;52.216;6.874;2022-08-19T18:25:14;101071.66;;;22.11;100.00
51229;BME280;37304;52.216;6.874;2022-08-19T18:30:18;101075.31;;;21.94;100.00
51229;BME280;37304;52.216;6.874;2022-08-19T18:35:22;101077.78;;;21.97;100.00
51229;BME280;37304;52.216;6.874;2022-08-19T18:40:27;101076.38;;;21.91;100.00
51229;BME280;37304;52.216;6.874;2022-08-19T18:45:46;101067.09;;;21.84;100.00
51229;BME280;37304;52.216;6.874;2022-08-19T18:51:05;101072.47;;;21.68;100.00
51229;BME280;37304;52.216;6.874;2022-08-19T18:56:08;101082.69;;;21.74;100.00
51229;BME280;37304;52.216;6.874;2022-08-19T19:01:12;101081.53;;;21.64;100.00
51229;BME280;37304;52.216;6.874;2022-08-19T19:06:16;101074.44;;;21.64;100.00
51229;BME280;37304;52.216;6.874;2022-08-19T19:11:32;101091.75;;;21.70;100.00
51229;BME280;37304;52.216;6.874;2022-08-19T19:16:32;101102.22;;;21.72;100.00
51229;BME280;37304;52.216;6.874;2022-08-19T19:21:33;101093.22;;;21.60;100.00
51229;BME280;37304;52.216;6.874;2022-08-19T19:26:34;101095.84;;;21.60;100.00
51229;BME280;37304;52.216;6.874;2022-08-19T19:31:36;101105.25;;;21.49;100.00
51229;BME280;37304;52.216;6.874;2022-08-19T19:36:36;101108.25;;;21.43;100.00
51229;BME280;37304;52.216;6.874;2022-08-19T19:41:37;101106.69;;;21.24;100.00
51229;BME280;37304;52.216;6.874;2022-08-19T19:46:39;101108.03;;;21.32;100.00
51229;BME280;37304;52.216;6.874;2022-08-19T19:51:42;101113.31;;;21.32;100.00
51229;BME280;37304;52.216;6.874;2022-08-19T19:56:42;101115.19;;;21.30;100.00
51229;BME280;37304;52.216;6.874;2022-08-19T20:01:44;101115.47;;;21.25;100.00
51229;BME280;37304;52.216;6.874;2022-08-19T20:06:45;101116.75;;;21.18;100.00
51229;BME280;37304;52.216;6.874;2022-08-19T20:11:50;101112.50;;;21.15;100.00
51229;BME280;37304;52.216;6.874;2022-08-19T20:16:52;101119.16;;;21.06;100.00
51229;BME280;37304;52.216;6.874;2022-08-19T20:21:54;101116.44;;;21.08;100.00
51229;BME280;37304;52.216;6.874;2022-08-19T20:26:54;101117.81;;;20.99;100.00
51229;BME280;37304;52.216;6.874;2022-08-19T20:31:55;101113.72;;;20.93;100.00
51229;BME280;37304;52.216;6.874;2022-08-19T20:36:55;101102.28;;;20.93;100.00
51229;BME280;37304;52.216;6.874;2022-08-19T20:41:56;101121.72;;;20.92;100.00
51229;BME280;37304;52.216;6.874;2022-08-19T20:46:56;101119.19;;;20.90;100.00
51229;BME280;37304;52.216;6.874;2022-08-19T20:51:56;101121.56;;;20.79;100.00
51229;BME280;37304;52.216;6.874;2022-08-19T20:56:57;101126.97;;;20.76;100.00
51229;BME280;37304;52.216;6.874;2022-08-19T21:01:57;101129.03;;;20.71;100.00
51229;BME280;37304;52.216;6.874;2022-08-19T21:06:58;101124.59;;;20.71;100.00
51229;BME280;37304;52.216;6.874;2022-08-19T21:12:02;101133.63;;;20.67;100.00
51229;BME280;37304;52.216;6.874;2022-08-19T21:17:03;101130.28;;;20.63;100.00
51229;BME280;37304;52.216;6.874;2022-08-19T21:22:04;101116.66;;;20.55;100.00
51229;BME280;37304;52.216;6.874;2022-08-19T21:27:04;101122.94;;;20.52;100.00
51229;BME280;37304;52.216;6.874;2022-08-19T21:32:05;101136.41;;;20.48;100.00
51229;BME280;37304;52.216;6.874;2022-08-19T21:37:06;101134.59;;;20.48;100.00
51229;BME280;37304;52.216;6.874;2022-08-19T21:42:07;101137.50;;;20.44;100.00
51229;BME280;37304;52.216;6.874;2022-08-19T21:47:07;101149.19;;;20.40;100.00
51229;BME280;37304;52.216;6.874;2022-08-19T21:52:08;101159.97;;;20.35;100.00
51229;BME280;37304;52.216;6.874;2022-08-19T21:57:08;101171.47;;;20.34;100.00
51229;BME280;37304;52.216;6.874;2022-08-19T22:02:09;101179.31;;;20.35;100.00
51229;BME280;37304;52.216;6.874;2022-08-19T22:07:11;101175.56;;;20.40;100.00
51229;BME280;37304;52.216;6.874;2022-08-19T22:12:39;101181.28;;;20.48;100.00
51229;BME280;37304;52.216;6.874;2022-08-19T22:17:42;101176.84;;;20.48;100.00
51229;BME280;37304;52.216;6.874;2022-08-19T22:22:52;101183.94;;;20.48;100.00
51229;BME280;37304;52.216;6.874;2022-08-19T22:27:56;101184.78;;;20.48;100.00
51229;BME280;37304;52.216;6.874;2022-08-19T22:32:58;101178.03;;;20.43;100.00
51229;BME280;37304;52.216;6.874;2022-08-19T22:38:03;101177.34;;;20.39;100.00
51229;BME280;37304;52.216;6.874;2022-08-19T22:43:12;101170.34;;;20.38;100.00
51229;BME280;37304;52.216;6.874;2022-08-19T22:48:16;101181.94;;;20.35;100.00
51229;BME280;37304;52.216;6.874;2022-08-19T22:53:17;101185.91;;;20.27;100.00
51229;BME280;37304;52.216;6.874;2022-08-19T22:58:19;101192.34;;;20.21;100.00
51229;BME280;37304;52.216;6.874;2022-08-19T23:03:19;101186.28;;;20.19;100.00
51229;BME280;37304;52.216;6.874;2022-08-19T23:08:20;101191.22;;;20.09;100.00
51229;BME280;37304;52.216;6.874;2022-08-19T23:13:20;101194.25;;;20.01;100.00
51229;BME280;37304;52.216;6.874;2022-08-19T23:18:21;101191.91;;;19.95;100.00
51229;BME280;37304;52.216;6.874;2022-08-19T23:23:21;101200.25;;;19.86;100.00
51229;BME280;37304;52.216;6.874;2022-08-19T23:28:23;101193.91;;;19.72;100.00
51229;BME280;37304;52.216;6.874;2022-08-19T23:33:43;101184.97;;;19.57;100.00
51229;BME280;37304;52.216;6.874;2022-08-19T23:38:44;101190.84;;;19.62;100.00
51229;BME280;37304;52.216;6.874;2022-08-19T23:43:45;101188.53;;;19.56;100.00
51229;BME280;37304;52.216;6.874;2022-08-19T23:48:46;101193.84;;;19.55;100.00
51229;BME280;37304;52.216;6.874;2022-08-19T23:53:47;101193.03;;;19.54;100.00
51229;BME280;37304;52.216;6.874;2022-08-19T23:58:47;101195.59;;;19.56;100.00
